Latest Weather Observations for Portland Airport

IDV60801

Issued at 7:22 am EDT Friday 21 January 2022 (issued every 10 minutes, with the page automatically refreshed every 10 minutes)

About weather observations | Map of weather stations | Latest weather observations for VIC | Other Formats
Station Details ID: 090171 Name: CASHMORE AIRPORT Lat: -38.31 Lon: 141.47 Height: 80.9 m
Data from the previous 72 hours. | See also: Recent months at Portland Airport
Date/Time
EDT
Temp
°C
App
Temp
°C
Dew
Point
°C
Rel
Hum
%
Delta-T
°C
Wind Press
QNH
hPa
Press
MSL
hPa
Rain since
9am
mm
Dir  Spd
km/h
Gust
km/h
Spd
kts
Gust
kts
21/07:00am 13.5 13.0 12.2 92 0.7 ENE 6 9 3 5 1024.3 1024.2 0.0
21/06:30am 13.6 13.0 12.3 92 0.7 NE 7 13 4 7 1024.0 1023.9 0.0
21/06:00am 14.0 13.1 12.7 92 0.7 NE 9 13 5 7 1023.8 1023.7 0.0
21/05:30am 14.1 13.0 13.0 93 0.6 NE 11 15 6 8 1023.7 1023.6 0.0
21/05:00am 14.6 13.9 13.3 92 0.7 NE 9 13 5 7 1023.3 1023.2 0.0
21/04:30am 15.1 14.5 13.6 91 0.8 ENE 9 15 5 8 1023.3 1023.2 0.0
21/04:00am 15.3 14.4 13.7 90 0.9 ENE 11 17 6 9 1023.6 1023.5 0.0
21/03:30am 15.5 14.2 13.7 89 1.0 ENE 13 17 7 9 1023.8 1023.7 0.0
21/03:00am 15.8 14.5 13.8 88 1.1 ENE 13 17 7 9 1023.9 1023.8 0.0
21/02:30am 15.7 13.6 13.5 87 1.2 ENE 17 20 9 11 1023.9 1023.8 0.0
21/02:00am 15.9 14.6 13.6 86 1.3 ENE 13 19 7 10 1024.2 1024.1 0.0
21/01:30am 16.0 13.9 13.7 86 1.3 ENE 17 24 9 13 1024.5 1024.4 0.0
21/01:00am 16.2 13.8 13.7 85 1.4 E 19 22 10 12 1024.5 1024.4 0.0
21/12:30am 16.5 14.1 13.8 84 1.5 E 19 24 10 13 1024.4 1024.3 0.0
21/12:00am 16.5 14.2 14.0 85 1.4 E 19 24 10 13 1024.4 1024.3 0.0
 
Date/Time
EDT
Temp
°C
App
Temp
°C
Dew
Point
°C
Rel
Hum
%
Delta-T
°C
Wind Press
QNH
hPa
Press
MSL
hPa
Rain since
9am
mm
Dir  Spd
km/h
Gust
km/h
Spd
kts
Gust
kts
20/11:30pm 16.5 14.6 14.2 86 1.3 E 17 22 9 12 1024.4 1024.3 0.0
20/11:00pm 16.6 14.3 14.1 85 1.4 E 19 22 10 12 1024.5 1024.4 0.0
20/10:30pm 17.0 15.1 14.1 83 1.7 E 17 22 9 12 1024.5 1024.4 0.0
20/10:00pm 17.3 14.8 14.0 81 1.9 E 20 30 11 16 1024.2 1024.1 0.0
20/09:30pm 17.6 14.7 13.9 79 2.1 E 22 28 12 15 1023.7 1023.6 0.0
20/09:00pm 18.0 14.6 13.7 76 2.4 E 24 32 13 17 1023.4 1023.3 0.0
20/08:30pm 19.0 16.0 13.8 72 3.0 E 22 28 12 15 1023.4 1023.3 0.0
20/08:00pm 19.6 16.6 13.8 69 3.3 E 22 32 12 17 1023.3 1023.2 0.0
20/07:30pm 20.4 17.5 14.1 67 3.7 E 22 30 12 16 1023.3 1023.2 0.0
20/07:00pm 20.9 18.3 13.8 64 4.1 ESE 20 30 11 16 1023.4 1023.3 0.0
20/06:30pm 21.7 19.2 14.1 62 4.4 ESE 20 35 11 19 1023.3 1023.2 0.0
20/06:00pm 21.4 16.8 13.6 61 4.5 E 30 43 16 23 1023.6 1023.5 0.0
20/05:30pm 22.4 18.3 13.7 58 5.1 E 28 39 15 21 1023.7 1023.6 0.0
20/05:00pm 22.6 17.6 13.4 56 5.3 E 32 41 17 22 1024.0 1023.9 0.0
20/04:30pm 23.1 18.4 13.3 54 5.7 E 30 39 16 21 1024.4 1024.3 0.0
20/04:00pm 23.1 18.7 13.0 53 5.8 E 28 39 15 21 1024.6 1024.5 0.0
20/03:30pm 23.6 19.6 12.9 51 6.2 E 26 35 14 19 1024.9 1024.8 0.0
20/03:00pm 23.7 20.4 12.7 50 6.3 ESE 22 32 12 17 1025.3 1025.1 0.0
20/02:30pm 24.1 20.9 13.0 50 6.4 E 22 33 12 18 1025.5 1025.3 0.0
20/02:00pm 23.9 20.1 12.5 49 6.5 E 24 35 13 19 1025.6 1025.4 0.0
20/01:30pm 23.7 19.9 12.4 49 6.5 E 24 33 13 18 1025.9 1025.7 0.0
20/01:00pm 24.2 20.9 12.8 49 6.6 E 22 28 12 15 1026.1 1025.9 0.0
20/12:30pm 23.8 20.6 13.1 51 6.2 E 22 32 12 17 1026.4 1026.2 0.0
20/12:00pm 22.3 18.9 12.5 53 5.6 E 22 35 12 19 1026.5 1026.3 0.0
20/11:30am 22.2 18.9 12.7 55 5.4 E 22 32 12 17 1026.8 1026.6 0.0
20/11:00am 21.7 18.5 13.1 58 4.9 E 22 32 12 17 1026.7 1026.5 0.0
20/10:30am 20.5 16.4 12.7 61 4.4 ENE 26 35 14 19 1026.7 1026.5 0.0
20/10:00am 19.3 14.9 12.8 66 3.7 E 28 37 15 20 1026.7 1026.5 0.0
20/09:30am 18.1 13.9 12.3 69 3.2 ENE 26 37 14 20 1026.7 1026.5 0.0
20/09:00am 17.6 13.8 12.3 71 2.9 ENE 24 35 13 19 1026.9 1026.7 0.0
20/08:34am 16.8 12.1 11.9 73 2.7 ENE 28 46 15 25 1026.8 1026.6 0.0
20/08:30am 16.8 12.5 11.9 73 2.7 ENE 26 43 14 23 1026.8 1026.6 0.0
20/08:00am 16.3 12.4 12.1 76 2.3 ENE 24 37 13 20 1026.7 1026.5 0.0
20/07:30am 15.6 12.1 12.2 80 1.9 ENE 22 35 12 19 1026.8 1026.6 0.0
20/07:00am 14.9 11.3 12.0 83 1.6 ENE 22 33 12 18 1026.6 1026.4 0.0
20/06:30am 14.9 10.6 12.0 83 1.6 E 26 33 14 18 1026.2 1026.0 0.0
20/06:00am 14.7 10.3 11.8 83 1.6 E 26 37 14 20 1025.7 1025.5 0.0
20/05:30am 14.9 10.6 11.9 82 1.6 E 26 37 14 20 1025.6 1025.4 0.0
20/05:00am 14.9 10.2 12.0 83 1.6 E 28 39 15 21 1025.4 1025.2 0.0
20/04:30am 14.9 10.2 12.0 83 1.6 E 28 39 15 21 1025.0 1024.9 0.0
20/04:00am 15.0 10.7 12.1 83 1.6 E 26 35 14 19 1025.0 1024.9 0.0
20/03:30am 15.1 10.8 12.2 83 1.6 E 26 33 14 18 1025.2 1025.0 0.0
20/03:00am 15.5 11.0 12.6 83 1.6 E 28 37 15 20 1025.2 1025.0 0.0
20/02:30am 15.7 10.9 13.0 84 1.5 E 30 39 16 21 1025.3 1025.1 0.0
20/02:00am 15.9 11.6 13.2 84 1.5 E 28 44 15 24 1025.2 1025.0 0.0
20/01:49am 15.9 11.7 13.4 85 1.4 E 28 46 15 25 1025.2 1025.0 0.0
20/01:30am 15.9 11.7 13.4 85 1.4 E 28 43 15 23 1025.3 1025.1 0.0
20/01:00am 16.0 11.4 13.5 85 1.4 E 30 46 16 25 1025.3 1025.1 0.0
20/12:30am 16.0 11.4 13.5 85 1.4 E 30 48 16 26 1025.2 1025.0 0.0
20/12:24am 16.0 11.3 13.3 84 1.5 E 30 48 16 26 1025.2 1025.0 0.0
20/12:00am 16.2 11.9 13.3 83 1.6 E 28 43 15 23 1025.3 1025.1 0.0
 
Date/Time
EDT
Temp
°C
App
Temp
°C
Dew
Point
°C
Rel
Hum
%
Delta-T
°C
Wind Press
QNH
hPa
Press
MSL
hPa
Rain since
9am
mm
Dir  Spd
km/h
Gust
km/h
Spd
kts
Gust
kts
19/11:44pm 16.2 11.9 13.1 82 1.7 E 28 46 15 25 1025.2 1025.0 0.0
19/11:30pm 16.3 11.9 13.0 81 1.8 E 28 44 15 24 1025.2 1025.0 0.0
19/11:00pm 16.4 12.1 13.3 82 1.7 E 28 43 15 23 1025.0 1024.9 0.0
19/10:30pm 16.5 11.4 13.2 81 1.9 E 32 43 17 23 1024.9 1024.8 0.0
19/10:00pm 16.6 12.3 13.1 80 2.0 E 28 46 15 25 1024.4 1024.3 0.0
19/09:55pm 16.6 12.3 13.1 80 2.0 ESE 28 46 15 25 1024.4 1024.3 0.0
19/09:30pm 16.8 12.6 12.5 76 2.4 ESE 26 46 14 25 1024.2 1024.1 0.0
19/09:00pm 17.1 13.1 11.8 71 2.9 ESE 24 39 13 21 1023.9 1023.8 0.0
19/08:53pm 17.3 12.5 11.8 70 3.0 ESE 28 46 15 25 1023.9 1023.8 0.0
19/08:30pm 18.1 14.5 11.7 66 3.5 ESE 22 41 12 22 1023.5 1023.4 0.0
19/08:00pm 19.0 14.7 12.0 64 3.9 ESE 26 41 14 22 1023.3 1023.2 0.0
19/07:30pm 19.7 15.0 12.0 61 4.3 ESE 28 48 15 26 1023.1 1023.0 0.0
19/07:09pm 20.2 15.6 12.2 60 4.5 ESE 28 46 15 25 1022.8 1022.7 0.0
19/07:00pm 20.7 16.8 12.1 58 4.8 ESE 24 41 13 22 1022.8 1022.7 0.0
19/06:30pm 20.6 15.3 12.6 60 4.5 ESE 32 50 17 27 1022.7 1022.6 0.0
19/06:07pm 21.2 16.1 13.1 60 4.6 ESE 32 50 17 27 1022.7 1022.6 0.0
19/06:00pm 21.1 15.7 12.8 59 4.7 ESE 33 48 18 26 1022.6 1022.5 0.0
19/05:30pm 21.3 15.7 13.2 60 4.7 ESE 35 56 19 30 1022.5 1022.4 0.0
19/05:00pm 21.4 15.7 13.1 59 4.7 ESE 35 56 19 30 1022.6 1022.5 0.0
19/04:30pm 21.7 15.3 13.1 58 4.9 ESE 39 59 21 32 1022.6 1022.5 0.0
19/04:00pm 21.8 15.4 13.2 58 4.9 ESE 39 61 21 33 1022.5 1022.4 0.0
19/03:30pm 21.9 15.5 13.3 58 5.0 ESE 39 57 21 31 1022.5 1022.4 0.0
19/03:00pm 22.5 16.9 13.3 56 5.3 ESE 35 57 19 31 1022.5 1022.4 0.0
19/02:30pm 21.6 14.9 13.5 60 4.7 ESE 41 61 22 33 1022.7 1022.6 0.0
19/02:00pm 20.9 13.9 14.3 66 3.8 SE 44 67 24 36 1023.1 1023.0 0.0
19/01:32pm 20.2 13.3 14.6 70 3.3 ESE 44 65 24 35 1023.2 1023.1 0.0
19/01:30pm 20.5 13.7 14.2 67 3.7 ESE 43 59 23 32 1023.2 1023.1 0.0
19/01:00pm 20.7 13.9 14.8 69 3.5 SE 44 63 24 34 1023.3 1023.2 0.0
19/12:37pm 20.5 15.5 15.1 71 3.2 ESE 35 56 19 30 1023.3 1023.2 0.0
19/12:30pm 21.4 16.8 15.0 67 3.8 ESE 33 52 18 28 1023.4 1023.3 0.0
19/12:00pm 20.2 15.6 14.6 70 3.3 ESE 32 52 17 28 1023.3 1023.2 0.0
19/11:46am 20.5 16.1 15.1 71 3.2 ESE 32 52 17 28 1023.4 1023.3 0.0
19/11:31am 19.7 13.7 14.5 72 3.0 ESE 39 65 21 35 1023.5 1023.4 0.0
19/11:30am 20.1 14.7 14.9 72 3.1 ESE 37 57 20 31 1023.5 1023.4 0.0
19/11:00am 19.4 14.7 14.4 73 2.9 ESE 32 50 17 27 1023.5 1023.4 0.0
19/10:35am 18.8 13.4 15.1 79 2.2 ESE 37 59 20 32 1023.5 1023.4 0.0
19/10:30am 18.6 13.3 15.3 81 1.9 SE 37 50 20 27 1023.5 1023.4 0.0
19/10:10am 18.2 12.5 15.1 82 1.8 ESE 39 57 21 31 1023.7 1023.6 0.0
19/10:00am 18.3 13.7 15.2 82 1.8 SE 33 50 18 27 1023.6 1023.5 0.0
19/09:30am 18.0 13.4 15.1 83 1.7 SE 33 52 18 28 1023.3 1023.2 0.0
19/09:18am 18.3 14.2 14.8 80 2.0 SE 30 48 16 26 1023.1 1023.0 0.0
19/09:15am 18.5 14.0 15.0 80 2.0 SE 32 48 17 26 1023.1 1023.0 0.0
19/09:06am 18.5 13.9 14.6 78 2.3 SE 32 48 17 26 1023.0 1022.9 0.0
19/09:03am 18.8 14.2 14.7 77 2.4 SE 32 50 17 27 1023.0 1022.9 0.0
19/09:00am 18.4 13.6 14.7 79 2.1 SE 33 50 18 27 1022.9 1022.8 0.0
19/08:58am 18.5 14.0 14.8 79 2.2 SE 32 50 17 27 1022.9 1022.8 0.0
19/08:30am 17.6 13.5 14.9 84 1.6 ESE 30 44 16 24 1022.7 1022.6 0.0
19/08:00am 17.0 12.8 14.6 86 1.4 ESE 30 46 16 25 1022.2 1022.1 0.0
19/07:55am 16.9 13.0 14.4 85 1.4 ESE 28 46 15 25 1022.1 1022.0 0.0
19/07:30am 16.4 12.4 14.2 87 1.3 SE 28 37 15 20 1021.9 1021.8 0.0
19/07:00am 15.9 12.5 13.7 87 1.2 SE 24 37 13 20 1021.6 1021.5 0.0
19/06:30am 15.6 11.3 13.1 85 1.4 SE 28 39 15 21 1021.3 1021.2 0.0
19/06:00am 15.5 11.3 12.4 82 1.7 SE 26 39 14 21 1021.2 1021.1 0.0
19/05:52am 15.4 11.6 12.3 82 1.7 SE 24 41 13 22 1021.2 1021.1 0.0
19/05:30am 15.2 11.1 11.6 79 1.9 SE 24 35 13 19 1021.2 1021.1 0.0
19/05:00am 15.2 10.3 11.2 77 2.1 SE 28 39 15 21 1021.0 1020.9 0.0
19/04:30am 15.1 10.8 10.9 76 2.2 SE 24 37 13 20 1021.0 1020.9 0.0
19/04:00am 15.0 10.3 10.6 75 2.3 SE 26 37 14 20 1020.9 1020.8 0.0
19/03:30am 14.9 10.2 10.5 75 2.3 SE 26 37 14 20 1020.7 1020.6 0.0
19/03:00am 15.0 9.7 10.0 72 2.6 SE 28 43 15 23 1020.8 1020.7 0.0
19/02:30am 14.9 10.1 8.8 67 3.1 SE 24 33 13 18 1020.9 1020.8 0.0
19/02:00am 14.9 9.3 7.0 59 3.9 SE 26 35 14 19 1021.2 1021.1 0.0
19/01:30am 15.0 10.5 7.1 59 3.9 SE 20 32 11 17 1021.3 1021.2 0.0
19/01:00am 15.0 10.0 8.0 63 3.5 SE 24 35 13 19 1021.5 1021.4 0.0
19/12:30am 15.1 9.8 6.9 58 4.0 SE 24 33 13 18 1021.4 1021.3 0.0
19/12:00am 15.1 9.6 7.6 61 3.7 SE 26 39 14 21 1021.4 1021.3 0.0
 
Date/Time
EDT
Temp
°C
App
Temp
°C
Dew
Point
°C
Rel
Hum
%
Delta-T
°C
Wind Press
QNH
hPa
Press
MSL
hPa
Rain since
9am
mm
Dir  Spd
km/h
Gust
km/h
Spd
kts
Gust
kts
18/11:30pm 14.9 10.2 7.9 63 3.5 SE 22 41 12 22 1021.2 1021.1 0.0
18/11:00pm 14.8 9.6 7.4 61 3.7 SE 24 35 13 19 1021.4 1021.3 0.0
18/10:30pm 15.0 10.0 8.0 63 3.5 SE 24 37 13 20 1021.4 1021.3 0.0
18/10:00pm 15.0 11.0 9.1 68 3.0 SE 20 28 11 15 1021.5 1021.4 0.0
18/09:30pm 15.0 10.2 8.7 66 3.2 SE 24 33 13 18 1021.3 1021.2 0.0
18/09:00pm 15.1 10.2 8.6 65 3.3 SE 24 39 13 21 1021.1 1021.0 0.0
18/08:30pm 15.3 10.6 9.4 68 3.1 SE 24 37 13 20 1020.7 1020.6 0.0
18/08:00pm 15.7 10.4 9.8 68 3.1 SE 28 39 15 21 1020.2 1020.1 0.0
18/07:30pm 16.3 11.9 9.0 62 3.8 SE 22 37 12 20 1019.4 1019.3 0.0
18/07:02pm 15.7 10.1 8.9 64 3.5 SE 28 46 15 25 1019.7 1019.6 0.0
18/07:00pm 15.7 10.2 9.1 65 3.4 SE 28 39 15 21 1019.7 1019.6 0.0
18/06:30pm 15.7 10.7 9.4 66 3.3 SE 26 41 14 22 1019.2 1019.1 0.0
18/06:00pm 16.0 11.0 9.7 66 3.3 SE 26 41 14 22 1019.1 1019.0 0.0
18/05:30pm 16.8 11.6 8.8 59 4.1 SE 26 43 14 23 1019.3 1019.2 0.0
18/05:00pm 16.4 10.8 8.9 61 3.9 SE 28 43 15 23 1019.4 1019.3 0.0
18/04:30pm 16.7 11.8 9.9 64 3.6 SE 26 39 14 21 1019.5 1019.4 0.0
18/04:00pm 16.0 10.6 9.4 65 3.4 SE 28 43 15 23 1019.5 1019.4 0.0
18/03:30pm 16.8 12.2 9.5 62 3.8 SE 24 33 13 18 1019.5 1019.4 0.0
18/03:00pm 17.6 13.7 10.7 64 3.7 SE 22 39 12 21 1019.3 1019.2 0.0
18/02:30pm 16.0 11.6 10.5 70 2.9 SE 24 37 13 20 1019.5 1019.4 0.0
18/02:00pm 15.8 12.5 9.7 67 3.2 SSE 17 30 9 16 1019.7 1019.6 0.0
18/01:30pm 15.3 12.4 11.1 76 2.2 SE 17 24 9 13 1020.0 1019.9 0.0
18/01:00pm 14.7 11.7 11.8 83 1.6 SSE 19 37 10 20 1020.1 1020.0 0.0
18/12:30pm 15.1 12.1 12.1 82 1.6 SSE 19 30 10 16 1019.9 1019.8 0.0
18/12:00pm 14.5 12.6 11.7 83 1.5 SE 13 20 7 11 1019.7 1019.6 0.0
18/11:30am 16.5 13.3 10.1 66 3.4 SSE 17 30 9 16 1019.5 1019.4 0.0
18/11:00am 15.1 12.3 9.9 71 2.7 SSE 15 28 8 15 1019.6 1019.5 0.0
18/10:30am 15.7 12.1 10.5 71 2.8 SSE 20 32 11 17 1019.4 1019.3 0.0
18/10:00am 16.0 12.5 11.0 72 2.7 SSE 20 30 11 16 1019.1 1019.0 0.0
18/09:30am 16.0 12.4 8.5 61 3.8 SE 17 22 9 12 1018.9 1018.8 0.0
18/09:00am 15.6 12.7 9.7 68 3.1 SSE 15 20 8 11 1018.7 1018.6 0.0
18/08:30am 15.7 12.3 9.1 65 3.4 SSE 17 30 9 16 1018.1 1017.9 0.0
18/08:00am 15.4 12.2 10.0 70 2.8 SSE 17 26 9 14 1017.8 1017.6 0.0
18/07:30am 15.2 12.7 9.8 70 2.8 SSE 13 22 7 12 1017.6 1017.4 0.0

Other formats

Comma delimited format used in spreadsheet applications
http://www.bom.gov.au/fwo/IDV60801/IDV60801.94828.axf

JavaScript Object Notation format (JSON) in row-major order
http://www.bom.gov.au/fwo/IDV60801/IDV60801.94828.json

Data quality

Most of these data are generated automatically and are frequently updated. Quality checks on data are not normally performed. It is possible for incorrect values to appear. Refer to information at About Latest Weather Observations and please check the disclaimer before using these data.